Time;durP1;ratioP1;P1;durP2;ratioP2;P2;SDS_P1;SDS_P2;PMS_P1;PMS_P2;Temp;Humidity;BMP_temperature;BMP_pressure;BME280_temperature;BME280_humidity;BME280_pressure;Samples;Min_cycle;Max_cycle;Signal;HPM_P1;HPM_P2
2023/08/09 00:00:20;;;;;;;4.30;2.30;;;17.70;99.90;;;;;;4952922;28;20959;-84
2023/08/09 00:02:48;;;;;;;3.13;2.07;;;17.60;99.90;;;;;;4935963;28;20478;-84
2023/08/09 00:05:14;;;;;;;2.80;1.83;;;17.50;99.90;;;;;;4952780;28;20492;-82
2023/08/09 00:07:41;;;;;;;1.80;1.70;;;17.70;99.90;;;;;;4939685;28;21090;-83
2023/08/09 00:10:09;;;;;;;2.10;1.73;;;17.60;99.90;;;;;;4949030;28;21033;-83
2023/08/09 00:12:36;;;;;;;2.80;1.83;;;17.50;99.90;;;;;;4939370;28;20460;-82
2023/08/09 00:15:03;;;;;;;2.47;1.87;;;17.50;99.90;;;;;;4948472;28;20491;-84
2023/08/09 00:17:30;;;;;;;2.90;1.80;;;17.50;99.90;;;;;;4939309;28;20476;-83
2023/08/09 00:19:57;;;;;;;1.97;1.87;;;17.50;99.90;;;;;;4950148;28;20532;-83
2023/08/09 00:22:24;;;;;;;4.70;1.90;;;17.60;99.90;;;;;;4940881;28;20477;-83
2023/08/09 00:24:51;;;;;;;1.93;1.60;;;17.50;99.90;;;;;;4930924;28;20472;-84
2023/08/09 00:27:18;;;;;;;2.20;1.87;;;17.50;99.90;;;;;;4947553;28;20488;-85
2023/08/09 00:29:45;;;;;;;2.20;2.00;;;17.40;99.90;;;;;;4952508;28;20953;-83
2023/08/09 00:32:12;;;;;;;2.63;1.80;;;17.40;99.90;;;;;;4950960;28;20457;-85
2023/08/09 00:34:39;;;;;;;1.50;1.40;;;17.40;99.90;;;;;;4950385;28;20491;-83
2023/08/09 00:37:06;;;;;;;1.70;1.60;;;17.40;99.90;;;;;;4952954;28;20980;-85
2023/08/09 00:39:32;;;;;;;2.50;2.03;;;17.40;99.90;;;;;;4946242;28;20468;-81
2023/08/09 00:42:00;;;;;;;2.83;2.00;;;17.40;99.90;;;;;;4944576;28;20508;-85
2023/08/09 00:44:29;;;;;;;2.47;2.27;;;17.50;99.90;;;;;;4958430;28;20465;-84
2023/08/09 00:46:56;;;;;;;1.67;1.57;;;17.50;99.90;;;;;;4949560;28;20456;-84
2023/08/09 00:49:25;;;;;;;2.00;1.80;;;17.50;99.90;;;;;;4963376;28;20452;-85
2023/08/09 00:51:53;;;;;;;1.90;1.70;;;17.50;99.90;;;;;;4948767;28;20618;-85
2023/08/09 00:54:20;;;;;;;2.80;1.93;;;17.50;99.90;;;;;;4940302;28;20515;-84
2023/08/09 00:56:48;;;;;;;3.10;1.63;;;17.50;99.90;;;;;;4948820;28;20456;-85
2023/08/09 00:59:16;;;;;;;4.20;1.90;;;17.50;99.90;;;;;;4942723;28;21237;-82
2023/08/09 01:01:43;;;;;;;1.97;1.70;;;17.50;99.90;;;;;;4951153;28;20871;-82
2023/08/09 01:04:10;;;;;;;2.57;1.80;;;17.50;99.90;;;;;;4941170;28;20543;-82
2023/08/09 01:06:44;;;;;;;2.60;2.17;;;17.50;99.90;;;;;;4938057;28;20560;-82
2023/08/09 01:09:34;;;;;;;2.23;2.03;;;17.50;99.90;;;;;;4947440;28;21068;-85
2023/08/09 01:12:14;;;;;;;2.27;2.07;;;17.50;99.90;;;;;;4942345;28;20455;-84
2023/08/09 01:14:43;;;;;;;2.50;2.30;;;17.50;99.90;;;;;;4931846;28;20489;-83
2023/08/09 01:17:13;;;;;;;2.17;1.97;;;17.50;99.90;;;;;;4931689;28;20750;-84
2023/08/09 01:19:54;;;;;;;4.20;2.20;;;17.50;99.90;;;;;;4942684;28;20460;-83
2023/08/09 01:22:30;;;;;;;1.67;1.57;;;17.50;99.90;;;;;;4930856;28;20456;-83
2023/08/09 01:25:03;;;;;;;2.40;1.73;;;17.50;99.90;;;;;;4946956;28;20478;-84
2023/08/09 01:27:31;;;;;;;3.20;2.20;;;17.50;99.90;;;;;;4938569;28;20498;-84
2023/08/09 01:29:59;;;;;;;2.27;2.07;;;17.40;99.90;;;;;;4945080;28;20464;-83
2023/08/09 01:32:28;;;;;;;3.73;2.07;;;17.60;99.90;;;;;;4945577;28;20488;-85
2023/08/09 01:34:56;;;;;;;2.40;2.20;;;17.40;99.90;;;;;;4937782;28;20487;-84
2023/08/09 01:37:45;;;;;;;2.67;2.20;;;17.40;99.90;;;;;;4952562;28;20452;-83
2023/08/09 01:40:17;;;;;;;2.40;1.90;;;17.50;99.90;;;;;;4941965;28;20456;-82
2023/08/09 01:42:45;;;;;;;2.60;2.40;;;17.50;99.90;;;;;;4952550;28;20457;-84
2023/08/09 01:45:13;;;;;;;3.13;2.40;;;17.50;99.90;;;;;;4945949;28;20559;-84
2023/08/09 01:47:42;;;;;;;2.97;2.77;;;17.40;99.90;;;;;;4942381;28;21012;-82
2023/08/09 01:50:23;;;;;;;2.53;2.33;;;17.50;99.90;;;;;;4961416;28;20464;-83
2023/08/09 01:52:55;;;;;;;3.10;2.40;;;17.50;99.90;;;;;;4965694;28;20456;-81
2023/08/09 01:55:25;;;;;;;2.73;2.30;;;17.50;99.90;;;;;;4952663;28;20471;-84
2023/08/09 01:57:54;;;;;;;2.70;2.50;;;17.40;99.90;;;;;;4952024;28;20476;-84
2023/08/09 02:00:23;;;;;;;2.30;2.10;;;17.40;99.90;;;;;;4951230;28;20464;-83
2023/08/09 02:02:52;;;;;;;4.60;2.50;;;17.40;99.90;;;;;;4950634;28;20485;-83
2023/08/09 02:05:20;;;;;;;5.20;2.67;;;17.40;99.90;;;;;;4957013;28;20491;-82
2023/08/09 02:07:47;;;;;;;3.87;2.80;;;17.40;99.90;;;;;;4966483;28;20480;-85
2023/08/09 02:10:15;;;;;;;1.43;1.33;;;17.50;99.90;;;;;;4957966;28;20453;-85
2023/08/09 02:12:47;;;;;;;1.83;1.70;;;17.80;99.90;;;;;;4949966;28;20460;-84
2023/08/09 02:15:15;;;;;;;1.40;1.30;;;17.80;99.90;;;;;;4940780;28;20481;-84
2023/08/09 02:17:44;;;;;;;1.50;1.40;;;17.80;99.90;;;;;;4936571;28;20496;-84
2023/08/09 02:20:12;;;;;;;1.93;1.73;;;17.70;99.90;;;;;;4957071;28;22080;-84
2023/08/09 02:22:40;;;;;;;2.47;1.40;;;17.50;99.90;;;;;;4950010;28;20551;-84
2023/08/09 02:25:13;;;;;;;1.90;1.80;;;17.30;99.90;;;;;;4933128;28;20484;-83
2023/08/09 02:27:40;;;;;;;2.10;2.00;;;17.20;99.90;;;;;;4949816;28;20699;-84
2023/08/09 02:30:09;;;;;;;3.33;3.03;;;17.40;99.90;;;;;;4944597;28;20558;-84
2023/08/09 02:32:37;;;;;;;2.50;2.30;;;17.20;99.90;;;;;;4947156;28;20475;-84
2023/08/09 02:35:05;;;;;;;2.63;2.43;;;17.30;99.90;;;;;;4942933;28;20599;-84
2023/08/09 02:37:34;;;;;;;2.50;2.30;;;17.20;99.90;;;;;;4952917;28;20475;-84
2023/08/09 02:40:01;;;;;;;2.90;2.60;;;17.10;99.90;;;;;;4949997;28;20459;-84
2023/08/09 02:42:28;;;;;;;2.50;2.30;;;17.40;99.90;;;;;;4939585;28;20520;-85
2023/08/09 02:44:56;;;;;;;2.50;2.33;;;17.30;99.90;;;;;;4946999;28;20488;-85
2023/08/09 02:47:23;;;;;;;3.00;2.70;;;17.20;99.90;;;;;;4942349;28;20460;-84
2023/08/09 02:49:50;;;;;;;2.97;2.77;;;17.40;99.90;;;;;;4954638;28;20545;-84
2023/08/09 02:52:17;;;;;;;2.67;2.47;;;17.40;99.90;;;;;;4944331;28;21033;-83
2023/08/09 02:54:47;;;;;;;2.80;2.00;;;17.30;99.90;;;;;;4937001;28;20481;-85
2023/08/09 02:57:15;;;;;;;2.47;2.27;;;17.20;99.90;;;;;;4954126;28;20643;-83
2023/08/09 02:59:42;;;;;;;2.83;2.63;;;17.20;99.90;;;;;;4955035;28;20464;-85
2023/08/09 03:02:08;;;;;;;2.87;2.67;;;17.00;99.90;;;;;;4951031;28;20476;-86
2023/08/09 03:04:35;;;;;;;3.00;2.80;;;17.00;99.90;;;;;;4932974;28;20482;-85
2023/08/09 03:07:03;;;;;;;3.57;3.27;;;16.90;99.90;;;;;;4929699;28;20467;-84
2023/08/09 03:09:31;;;;;;;3.47;3.17;;;16.80;99.90;;;;;;4932700;28;20515;-85
2023/08/09 03:11:58;;;;;;;3.30;3.00;;;17.00;99.90;;;;;;4936221;28;20532;-83
2023/08/09 03:14:25;;;;;;;3.23;2.93;;;17.20;99.90;;;;;;4955315;28;20539;-84
2023/08/09 03:16:56;;;;;;;2.80;2.60;;;17.30;99.90;;;;;;4946098;28;20457;-83
2023/08/09 03:19:23;;;;;;;2.33;2.23;;;17.10;99.90;;;;;;4952457;28;20468;-85
2023/08/09 03:21:50;;;;;;;2.97;2.67;;;17.00;99.90;;;;;;4943904;28;20475;-84
2023/08/09 03:24:18;;;;;;;2.70;2.50;;;17.00;99.90;;;;;;4935169;28;20484;-83
2023/08/09 03:26:45;;;;;;;2.70;2.50;;;17.00;99.90;;;;;;4944749;28;20992;-83
2023/08/09 03:29:12;;;;;;;3.07;2.57;;;16.90;99.90;;;;;;4929991;28;20492;-85
2023/08/09 03:31:41;;;;;;;2.17;1.97;;;16.90;99.90;;;;;;4941219;28;21487;-86
2023/08/09 03:34:08;;;;;;;2.17;1.97;;;16.90;99.90;;;;;;4957969;28;20485;-83
2023/08/09 03:36:35;;;;;;;3.83;2.00;;;16.90;99.90;;;;;;4945750;28;20459;-84
2023/08/09 03:39:03;;;;;;;1.90;1.80;;;16.80;99.90;;;;;;4948869;28;20496;-83
2023/08/09 03:41:30;;;;;;;2.60;2.00;;;16.80;99.90;;;;;;4964563;28;20472;-82
2023/08/09 03:43:57;;;;;;;2.90;2.17;;;16.80;99.90;;;;;;4954193;28;20485;-84
2023/08/09 03:46:24;;;;;;;1.97;1.87;;;16.80;99.90;;;;;;4955338;28;20471;-82
2023/08/09 03:48:51;;;;;;;2.17;2.07;;;16.80;99.90;;;;;;4965582;28;20507;-84
2023/08/09 03:51:19;;;;;;;2.30;2.00;;;16.80;99.90;;;;;;4947630;28;20479;-83
2023/08/09 03:53:46;;;;;;;2.20;2.00;;;16.70;99.90;;;;;;4952351;28;21520;-85
2023/08/09 03:56:13;;;;;;;1.90;1.80;;;16.90;99.90;;;;;;4947429;28;20512;-84
2023/08/09 03:58:40;;;;;;;2.47;2.10;;;16.90;99.90;;;;;;4941921;28;20475;-84
2023/08/09 04:01:07;;;;;;;2.03;1.90;;;17.00;99.90;;;;;;4958447;28;20728;-85
2023/08/09 04:03:35;;;;;;;2.90;2.40;;;16.80;99.90;;;;;;4954274;28;20490;-84
2023/08/09 04:06:02;;;;;;;3.10;2.50;;;16.80;99.90;;;;;;4963786;28;20457;-83
2023/08/09 04:08:30;;;;;;;3.37;2.20;;;16.80;99.90;;;;;;4951490;28;20488;-85
2023/08/09 04:10:59;;;;;;;2.30;2.10;;;17.30;99.90;;;;;;4942178;28;20457;-84
2023/08/09 04:13:27;;;;;;;2.93;2.40;;;17.30;99.90;;;;;;4945591;28;20449;-85
2023/08/09 04:15:54;;;;;;;2.60;2.40;;;17.30;99.90;;;;;;4944948;28;20463;-85
2023/08/09 04:21:02;;;;;;;2.63;2.43;;;16.90;99.90;;;;;;5217887;23;20502;-84
2023/08/09 04:23:51;;;;;;;2.80;2.50;;;16.80;99.90;;;;;;4989411;28;20493;-83
2023/08/09 04:26:39;;;;;;;3.50;2.63;;;16.80;99.90;;;;;;5003647;28;20552;-82
2023/08/09 04:32:16;;;;;;;3.20;2.30;;;16.90;99.90;;;;;;5461706;23;21937;-84
2023/08/09 04:37:31;;;;;;;2.80;2.60;;;16.90;99.90;;;;;;5337554;23;21811;-84
2023/08/09 04:59:59;;;;;;;2.60;2.43;;;17.10;99.90;;;;;;5025482;23;20475;-83
2023/08/09 05:05:40;;;;;;;3.60;2.87;;;17.50;99.90;;;;;;4972477;28;21034;-85
2023/08/09 05:08:25;;;;;;;3.73;3.40;;;17.50;99.90;;;;;;4976335;28;20459;-83
2023/08/09 05:11:21;;;;;;;4.67;4.27;;;17.40;99.90;;;;;;4972048;28;20466;-84
2023/08/09 05:14:10;;;;;;;4.83;4.13;;;17.70;99.90;;;;;;4956899;28;20478;-84
2023/08/09 05:16:40;;;;;;;5.30;4.63;;;17.30;99.90;;;;;;4975725;28;20462;-82
2023/08/09 05:19:16;;;;;;;5.20;4.70;;;18.00;99.90;;;;;;4970032;28;20464;-85
2023/08/09 05:22:00;;;;;;;4.87;4.37;;;17.10;99.90;;;;;;5141933;23;20508;-83
2023/08/09 05:24:47;;;;;;;5.87;5.27;;;17.20;99.90;;;;;;4960465;28;20481;-83
2023/08/09 05:27:24;;;;;;;6.50;5.87;;;17.20;99.90;;;;;;4954904;28;20593;-84
2023/08/09 05:33:08;;;;;;;5.00;4.20;;;17.40;99.90;;;;;;4968493;28;21105;-85
2023/08/09 05:36:23;;;;;;;;;;;;;;;;;;;;;
2023/08/09 05:39:03;;;;;;;4.30;3.90;;;17.50;99.90;;;;;;4966465;28;20466;-84
2023/08/09 05:44:49;;;;;;;5.10;4.60;;;18.80;99.90;;;;;;4969879;28;20482;-84
2023/08/09 05:47:40;;;;;;;4.93;4.53;;;17.80;99.90;;;;;;4943905;28;20472;-84
2023/08/09 05:50:27;;;;;;;4.97;4.43;;;17.20;99.90;;;;;;4947743;28;20543;-85
2023/08/09 05:53:19;;;;;;;6.00;5.40;;;17.20;99.90;;;;;;4958071;28;20457;-85
2023/08/09 05:56:08;;;;;;;7.23;5.37;;;17.20;99.90;;;;;;4943067;28;20536;-85
2023/08/09 05:58:38;;;;;;;6.80;5.47;;;18.20;99.90;;;;;;4943228;28;20487;-85
2023/08/09 06:02:07;;;;;;;7.00;6.03;;;16.90;99.90;;;;;;4954896;28;20468;-82
2023/08/09 06:04:35;;;;;;;5.17;4.73;;;17.30;99.90;;;;;;4945488;28;20487;-82
2023/08/09 06:07:44;;;;;;;4.87;4.37;;;17.50;99.90;;;;;;4946821;28;20465;-83
2023/08/09 06:10:23;;;;;;;5.20;4.70;;;17.70;99.90;;;;;;4947153;28;21105;-84
2023/08/09 06:15:34;;;;;;;4.60;4.10;;;17.60;99.90;;;;;;5111437;23;20840;-84
2023/08/09 06:18:22;;;;;;;5.00;4.60;;;17.90;99.90;;;;;;4957892;28;20459;-85
2023/08/09 06:21:28;;;;;;;5.37;4.80;;;17.90;99.90;;;;;;4970668;28;20439;-82
2023/08/09 06:24:41;;;;;;;3.80;3.30;;;18.00;99.90;;;;;;4959814;28;20599;-84
2023/08/09 06:27:24;;;;;;;4.57;3.73;;;18.30;99.90;;;;;;5153751;23;20585;-83
2023/08/09 06:30:51;;;;;;;4.20;3.80;;;18.00;99.90;;;;;;4986327;28;20560;-83
2023/08/09 06:33:59;;;;;;;3.40;3.10;;;18.20;99.90;;;;;;4971467;28;20582;-83
2023/08/09 06:37:22;;;;;;;3.40;3.10;;;18.90;99.90;;;;;;4964537;28;20482;-82
2023/08/09 06:53:13;;;;;;;;;;;;;;;;;;;;;
2023/08/09 06:59:41;;;;;;;;;;;;;;;;;;;;;
2023/08/09 07:02:35;;;;;;;4.60;4.10;;;19.50;98.40;;;;;;4867439;29;20466;-84
2023/08/09 07:08:54;;;;;;;4.93;3.67;;;19.40;99.90;;;;;;4904102;29;20464;-83
2023/08/09 07:11:36;;;;;;;3.83;3.53;;;19.70;99.90;;;;;;4932298;29;20465;-83
2023/08/09 07:14:48;;;;;;;4.30;4.00;;;19.80;99.90;;;;;;4906534;29;20474;-84
2023/08/09 07:17:32;;;;;;;3.83;3.53;;;19.60;99.90;;;;;;4912753;29;20930;-84
2023/08/09 07:20:17;;;;;;;3.90;3.60;;;19.70;99.90;;;;;;4945465;28;20477;-84
2023/08/09 07:27:07;;;;;;;;;;;;;;;;;;;;;
2023/08/09 07:30:25;;;;;;;;;;;;;;;;;;;;;
2023/08/09 07:34:36;;;;;;;;;;;;;;;;;;;;;
2023/08/09 07:37:46;;;;;;;2.80;2.60;;;21.90;95.10;;;;;;4812365;29;20598;-83
2023/08/09 07:41:01;;;;;;;3.73;3.27;;;22.20;92.80;;;;;;4814579;29;20518;-84
2023/08/09 07:44:32;;;;;;;3.53;3.23;;;21.50;92.90;;;;;;4890372;29;21132;-83
2023/08/09 07:47:44;;;;;;;3.77;3.47;;;21.20;94.50;;;;;;4876901;29;20875;-81
2023/08/09 07:51:11;;;;;;;3.67;3.37;;;21.10;95.80;;;;;;4876226;29;20518;-81
2023/08/09 07:54:00;;;;;;;4.40;3.80;;;19.90;96.40;;;;;;4833068;29;20562;-83
2023/08/09 07:57:25;;;;;;;4.00;3.70;;;20.20;96.70;;;;;;4763429;29;20469;-84
2023/08/09 08:00:35;;;;;;;5.27;4.60;;;20.10;96.50;;;;;;4763076;29;20982;-84
2023/08/09 08:03:29;;;;;;;20.80;18.60;;;19.90;96.10;;;;;;4760703;29;21081;-85
2023/08/09 08:06:11;;;;;;;4.90;4.50;;;19.40;97.20;;;;;;4772324;30;20497;-85
2023/08/09 08:13:37;;;;;;;5.07;3.87;;;19.80;97.60;;;;;;4761972;29;20450;-84
2023/08/09 08:17:05;;;;;;;3.60;3.30;;;20.10;95.80;;;;;;4835740;29;20589;-84
2023/08/09 08:20:26;;;;;;;3.37;3.13;;;21.40;95.60;;;;;;4817128;29;20559;-85
2023/08/09 08:24:19;;;;;;;3.40;3.20;;;23.30;90.80;;;;;;4856252;29;20465;-85
2023/08/09 08:28:01;;;;;;;;;;;;;;;;;;;;;
2023/08/09 08:31:20;;;;;;;;;;;;;;;;;;;;;
2023/08/09 08:34:05;;;;;;;3.57;3.37;;;24.40;80.90;;;;;;4841077;29;20497;-84
2023/08/09 08:37:00;;;;;;;4.67;3.20;;;24.20;85.50;;;;;;4900502;29;20519;-85
2023/08/09 08:40:06;;;;;;;3.53;3.23;;;25.50;77.00;;;;;;4883489;29;20476;-84
2023/08/09 08:43:08;;;;;;;4.10;3.37;;;26.10;77.90;;;;;;4899659;29;20467;-84
2023/08/09 08:46:21;;;;;;;3.50;3.13;;;27.80;70.70;;;;;;4892224;29;20462;-85
2023/08/09 08:48:59;;;;;;;3.20;3.00;;;29.00;63.60;;;;;;4907481;29;20456;-86
2023/08/09 08:51:39;;;;;;;3.00;2.80;;;29.30;60.10;;;;;;4918569;29;20602;-85
2023/08/09 08:54:13;;;;;;;2.50;2.30;;;29.50;59.10;;;;;;4900043;29;20478;-85
2023/08/09 08:56:57;;;;;;;2.90;2.67;;;29.20;59.00;;;;;;4906533;29;20557;-83
2023/08/09 09:17:07;;;;;;;2.13;1.90;;;29.90;53.50;;;;;;5461403;23;20490;-81
2023/08/09 09:20:33;;;;;;;3.30;2.60;;;29.30;54.80;;;;;;4948964;28;20531;-84
2023/08/09 09:26:14;;;;;;;3.37;2.50;;;27.70;56.70;;;;;;4990189;28;20922;-85
2023/08/09 09:28:49;;;;;;;2.43;2.27;;;26.50;58.30;;;;;;4984664;28;20530;-85
2023/08/09 09:31:40;;;;;;;2.33;2.13;;;25.70;62.50;;;;;;4967417;28;20503;-83
2023/08/09 09:34:37;;;;;;;2.73;2.50;;;25.50;64.00;;;;;;4973715;28;20476;-82
2023/08/09 09:37:30;;;;;;;2.93;2.10;;;24.70;66.10;;;;;;4954748;28;20591;-83
2023/08/09 09:40:37;;;;;;;2.30;2.20;;;26.60;63.80;;;;;;4938885;28;20985;-85
2023/08/09 09:43:24;;;;;;;2.90;1.87;;;26.40;60.50;;;;;;4944180;28;20532;-83
2023/08/09 09:46:29;;;;;;;2.63;2.43;;;25.10;62.90;;;;;;4942075;28;20522;-83
2023/08/09 09:49:08;;;;;;;2.80;2.03;;;25.20;64.00;;;;;;4942269;28;20468;-84
2023/08/09 09:51:42;;;;;;;3.37;2.10;;;26.00;62.60;;;;;;4958394;28;20509;-81
2023/08/09 09:54:54;;;;;;;2.27;2.07;;;27.30;59.50;;;;;;4915740;28;20586;-84
2023/08/09 10:01:42;;;;;;;2.27;2.07;;;28.60;54.50;;;;;;4898379;29;21198;-85
2023/08/09 10:04:31;;;;;;;2.40;2.27;;;26.90;57.30;;;;;;4873851;29;20495;-83
2023/08/09 10:07:56;;;;;;;3.53;2.20;;;25.90;59.40;;;;;;4896472;29;20470;-85
2023/08/09 10:14:54;;;;;;;3.20;2.43;;;27.60;59.80;;;;;;4874479;29;20483;-83
2023/08/09 10:17:35;;;;;;;2.60;2.40;;;27.40;57.40;;;;;;4886768;29;20470;-83
2023/08/09 10:20:41;;;;;;;2.50;2.30;;;26.70;57.00;;;;;;4872412;29;20537;-84
2023/08/09 10:24:06;;;;;;;4.07;2.73;;;25.80;58.20;;;;;;4885796;29;20478;-83
2023/08/09 10:26:57;;;;;;;2.97;2.50;;;25.10;60.60;;;;;;4900306;28;20449;-82
2023/08/09 10:29:59;;;;;;;3.20;2.57;;;24.70;61.20;;;;;;4935582;28;20487;-83
2023/08/09 10:32:52;;;;;;;2.10;1.90;;;25.20;63.10;;;;;;4934173;28;20694;-82
2023/08/09 10:35:56;;;;;;;2.27;2.10;;;26.60;60.40;;;;;;4940142;28;20504;-82
2023/08/09 10:38:32;;;;;;;2.97;2.20;;;26.90;56.90;;;;;;4887544;29;20490;-85
2023/08/09 10:44:51;;;;;;;2.43;2.23;;;26.30;57.20;;;;;;4900592;29;21066;-83
2023/08/09 10:47:28;;;;;;;2.40;2.20;;;26.50;57.80;;;;;;4934260;28;20548;-84
2023/08/09 10:50:05;;;;;;;2.40;2.20;;;25.70;58.20;;;;;;4952297;28;21663;-83
2023/08/09 10:52:51;;;;;;;2.33;2.20;;;25.10;57.70;;;;;;4940787;28;20468;-85
2023/08/09 10:55:30;;;;;;;2.93;2.70;;;25.90;57.50;;;;;;4955228;28;20574;-83
2023/08/09 10:58:02;;;;;;;3.20;2.77;;;27.20;53.80;;;;;;4958424;28;20436;-83
2023/08/09 11:01:03;;;;;;;2.80;2.60;;;27.70;51.70;;;;;;4963785;28;20452;-85
2023/08/09 11:03:39;;;;;;;2.70;2.40;;;27.20;52.70;;;;;;4944404;28;20455;-85
2023/08/09 11:06:48;;;;;;;2.50;2.30;;;26.30;54.10;;;;;;4944001;28;20473;-83
2023/08/09 11:09:31;;;;;;;3.07;2.77;;;25.30;53.80;;;;;;4954902;28;21063;-85
2023/08/09 11:12:17;;;;;;;3.10;2.50;;;25.60;54.90;;;;;;4945148;28;20937;-84
2023/08/09 11:14:59;;;;;;;2.70;2.50;;;26.10;56.10;;;;;;4943293;28;20476;-84
2023/08/09 11:17:50;;;;;;;2.90;2.60;;;25.50;56.10;;;;;;4935312;28;20449;-83
2023/08/09 11:20:24;;;;;;;2.93;2.73;;;25.50;56.40;;;;;;4934951;28;20471;-84
2023/08/09 11:23:27;;;;;;;3.50;3.13;;;25.70;56.30;;;;;;4932145;28;20488;-84
2023/08/09 11:25:58;;;;;;;3.00;2.80;;;25.20;56.50;;;;;;4951105;28;20468;-83
2023/08/09 11:28:42;;;;;;;3.77;3.43;;;24.90;56.80;;;;;;4933978;28;20543;-84
2023/08/09 11:31:16;;;;;;;2.80;2.60;;;24.80;57.00;;;;;;4951015;28;20932;-84
2023/08/09 11:34:08;;;;;;;3.20;2.90;;;25.00;57.20;;;;;;4948904;28;20538;-82
2023/08/09 11:36:45;;;;;;;2.30;2.20;;;24.70;57.00;;;;;;4963593;28;20516;-81
2023/08/09 11:39:28;;;;;;;2.40;2.27;;;24.90;57.00;;;;;;4923159;28;20520;-83
2023/08/09 11:42:05;;;;;;;2.80;2.33;;;25.60;56.10;;;;;;4929736;28;20619;-82
2023/08/09 11:44:52;;;;;;;2.00;1.90;;;25.50;55.70;;;;;;4940367;28;20547;-83
2023/08/09 11:47:49;;;;;;;2.97;2.63;;;25.70;55.70;;;;;;4940356;28;20471;-84
2023/08/09 11:50:30;;;;;;;2.90;2.70;;;25.30;56.60;;;;;;4931192;28;20507;-83
2023/08/09 11:53:22;;;;;;;3.00;2.70;;;24.60;57.10;;;;;;4947238;28;20472;-83
2023/08/09 11:55:50;;;;;;;2.57;2.37;;;24.40;57.20;;;;;;4943740;28;20469;-81
2023/08/09 11:58:18;;;;;;;2.87;2.63;;;24.30;59.30;;;;;;4930984;28;20506;-82
2023/08/09 12:00:58;;;;;;;2.63;2.43;;;25.40;58.90;;;;;;4934573;28;20461;-82
2023/08/09 12:04:01;;;;;;;3.43;2.97;;;24.80;58.40;;;;;;4930782;28;21104;-83
2023/08/09 12:07:18;;;;;;;3.13;2.43;;;25.20;59.10;;;;;;4934874;28;21063;-84
2023/08/09 12:09:53;;;;;;;2.47;2.27;;;24.70;58.20;;;;;;4950104;28;20487;-84
2023/08/09 12:12:49;;;;;;;2.70;2.53;;;25.00;57.90;;;;;;4943622;28;20484;-84
2023/08/09 12:19:28;;;;;;;3.80;2.83;;;24.70;58.80;;;;;;4964740;28;20502;-84
2023/08/09 12:22:19;;;;;;;2.63;2.43;;;24.80;59.70;;;;;;4959295;28;20468;-85
2023/08/09 12:25:05;;;;;;;2.90;2.70;;;24.80;60.20;;;;;;4962928;23;20475;-83
2023/08/09 12:28:03;;;;;;;2.70;2.50;;;25.50;58.40;;;;;;4976780;28;20458;-84
2023/08/09 12:31:23;;;;;;;2.83;2.63;;;25.80;57.70;;;;;;4946911;28;20607;-84
2023/08/09 12:34:30;;;;;;;2.57;2.43;;;25.60;57.20;;;;;;4943628;28;20491;-85
2023/08/09 12:37:13;;;;;;;2.97;2.70;;;25.30;57.70;;;;;;4956603;28;20787;-86
2023/08/09 12:40:12;;;;;;;5.13;3.10;;;25.10;58.30;;;;;;4948091;28;20555;-84
2023/08/09 12:42:50;;;;;;;3.30;3.10;;;25.10;58.60;;;;;;4967500;28;20442;-86
2023/08/09 12:45:38;;;;;;;3.97;3.60;;;24.60;59.30;;;;;;4962993;28;20489;-86
2023/08/09 12:48:17;;;;;;;2.83;2.60;;;24.60;60.10;;;;;;4967608;28;20444;-86
2023/08/09 12:51:02;;;;;;;4.40;2.87;;;24.80;59.50;;;;;;4964145;28;20519;-86
2023/08/09 12:54:11;;;;;;;2.90;2.53;;;25.00;59.80;;;;;;4965612;28;20891;-85
2023/08/09 12:56:48;;;;;;;2.50;2.30;;;24.20;57.40;;;;;;4977727;28;20522;-86
2023/08/09 12:59:44;;;;;;;2.80;2.60;;;24.20;58.60;;;;;;4956063;28;20459;-83
2023/08/09 13:02:29;;;;;;;2.97;2.73;;;24.30;58.50;;;;;;4978432;28;20466;-85
2023/08/09 13:05:09;;;;;;;3.33;3.00;;;24.00;59.40;;;;;;4962191;28;20490;-84
2023/08/09 13:07:56;;;;;;;3.80;3.50;;;24.60;61.70;;;;;;4955258;28;20411;-85
2023/08/09 13:10:34;;;;;;;2.87;2.40;;;24.30;59.00;;;;;;4986558;28;20513;-84
2023/08/09 13:13:18;;;;;;;2.73;2.17;;;24.00;59.40;;;;;;4989475;28;20459;-84
2023/08/09 13:16:07;;;;;;;2.60;2.40;;;25.40;59.10;;;;;;4977031;28;20446;-85
2023/08/09 13:18:53;;;;;;;2.47;2.27;;;25.80;57.00;;;;;;4965098;28;20463;-85
2023/08/09 13:21:33;;;;;;;2.00;1.80;;;25.60;55.90;;;;;;4982841;28;20517;-86
2023/08/09 13:24:33;;;;;;;2.03;1.93;;;26.30;55.30;;;;;;4965835;28;20498;-85
2023/08/09 13:27:23;;;;;;;2.27;2.07;;;26.20;54.70;;;;;;4980394;28;20527;-83
2023/08/09 13:34:10;;;;;;;1.80;1.53;;;25.90;54.70;;;;;;4983139;28;20471;-86
2023/08/09 13:37:35;;;;;;;5.90;1.87;;;25.70;53.90;;;;;;4972131;28;20455;-84
2023/08/09 13:40:34;;;;;;;2.67;1.77;;;25.80;55.00;;;;;;4951335;28;21129;-86
2023/08/09 13:43:17;;;;;;;1.50;1.40;;;26.20;53.70;;;;;;4966907;28;20477;-84
2023/08/09 13:46:10;;;;;;;2.80;1.73;;;26.10;53.80;;;;;;4975072;28;21168;-86
2023/08/09 13:53:42;;;;;;;1.50;1.40;;;26.00;52.60;;;;;;4913316;29;20469;-84
2023/08/09 13:56:33;;;;;;;1.37;1.27;;;26.40;51.70;;;;;;4893709;28;20534;-85
2023/08/09 13:59:19;;;;;;;1.60;1.50;;;26.50;52.70;;;;;;4980282;28;20467;-84
2023/08/09 14:02:32;;;;;;;2.03;1.50;;;26.20;53.00;;;;;;4978933;28;20503;-87
2023/08/09 14:06:01;;;;;;;1.80;1.70;;;26.00;53.00;;;;;;5002954;28;21905;-83
2023/08/09 14:12:48;;;;;;;;;;;;;;;;;;;;;
2023/08/09 14:15:57;;;;;;;1.70;1.60;;;26.00;52.90;;;;;;4968556;28;20482;-85
2023/08/09 14:18:44;;;;;;;1.40;1.30;;;25.60;54.10;;;;;;4973488;28;20443;-85
2023/08/09 14:21:59;;;;;;;1.70;1.60;;;25.40;55.10;;;;;;4976668;28;20451;-85
2023/08/09 14:25:22;;;;;;;;;;;;;;;;;;;;;
2023/08/09 14:28:19;;;;;;;1.43;1.33;;;25.40;54.10;;;;;;4941817;28;21222;-85
2023/08/09 14:31:12;;;;;;;1.60;1.50;;;25.90;53.00;;;;;;4967564;28;20487;-84
2023/08/09 14:34:23;;;;;;;1.70;1.57;;;25.40;53.10;;;;;;4936510;28;20466;-83
2023/08/09 14:37:20;;;;;;;1.53;1.43;;;25.80;54.70;;;;;;4968893;28;20458;-85
2023/08/09 14:40:24;;;;;;;1.57;1.47;;;25.20;54.30;;;;;;4965401;28;20468;-84
2023/08/09 14:43:26;;;;;;;2.07;1.20;;;25.30;55.00;;;;;;4967630;28;21396;-84
2023/08/09 14:46:41;;;;;;;1.50;1.20;;;25.60;56.50;;;;;;4943701;28;21023;-83
2023/08/09 14:53:18;;;;;;;1.70;1.40;;;25.70;55.40;;;;;;4867220;29;20453;-81
2023/08/09 14:56:08;;;;;;;2.17;1.97;;;26.10;54.60;;;;;;4952931;23;20721;-83
2023/08/09 14:59:03;;;;;;;1.70;1.60;;;25.70;54.30;;;;;;4961761;28;20515;-84
2023/08/09 15:01:49;;;;;;;1.83;1.73;;;25.60;53.40;;;;;;4984630;28;20442;-85
2023/08/09 15:05:06;;;;;;;1.77;1.67;;;25.50;54.10;;;;;;4977359;28;20469;-84
2023/08/09 15:07:55;;;;;;;1.87;1.77;;;25.60;53.80;;;;;;4964604;28;20511;-82
2023/08/09 15:10:35;;;;;;;1.60;1.50;;;25.70;53.50;;;;;;4968384;28;20471;-85
2023/08/09 15:13:34;;;;;;;1.97;1.87;;;26.10;55.50;;;;;;4960641;28;20460;-84
2023/08/09 15:16:37;;;;;;;3.50;3.30;;;25.60;55.20;;;;;;4937963;28;20457;-85
2023/08/09 15:19:27;;;;;;;2.33;1.67;;;25.70;54.80;;;;;;4925464;28;20477;-85
2023/08/09 15:22:15;;;;;;;1.67;1.30;;;25.70;55.60;;;;;;4938405;28;20463;-86
2023/08/09 15:28:23;;;;;;;2.10;2.00;;;25.50;54.20;;;;;;4944620;28;20442;-85
2023/08/09 15:31:20;;;;;;;1.70;1.60;;;25.30;53.40;;;;;;4936238;28;20504;-84
2023/08/09 15:34:24;;;;;;;2.10;1.90;;;25.80;53.70;;;;;;4940578;28;20475;-85
2023/08/09 15:37:05;;;;;;;2.10;2.00;;;25.90;53.00;;;;;;4947372;28;20464;-84
2023/08/09 15:39:52;;;;;;;3.17;2.10;;;25.60;52.60;;;;;;4950485;28;20531;-86
2023/08/09 15:43:01;;;;;;;2.80;2.07;;;26.10;53.60;;;;;;4952003;28;20491;-85
2023/08/09 15:45:50;;;;;;;1.87;1.77;;;25.10;54.20;;;;;;4948721;28;20484;-86
2023/08/09 15:49:02;;;;;;;3.23;2.33;;;25.10;55.10;;;;;;4943063;28;20454;-82
2023/08/09 15:51:37;;;;;;;2.10;2.00;;;25.20;54.90;;;;;;4947654;28;20501;-85
2023/08/09 15:54:17;;;;;;;2.83;2.10;;;25.20;55.50;;;;;;4937142;28;20558;-85
2023/08/09 15:57:19;;;;;;;2.47;2.27;;;24.30;54.80;;;;;;4943174;28;20468;-84
2023/08/09 15:59:53;;;;;;;1.90;1.80;;;24.80;55.80;;;;;;4938419;28;20468;-86
2023/08/09 16:02:53;;;;;;;2.27;1.97;;;25.00;56.70;;;;;;4931627;28;20463;-85
2023/08/09 16:05:43;;;;;;;2.53;2.33;;;24.40;55.80;;;;;;4937484;28;21643;-85
2023/08/09 16:08:35;;;;;;;2.10;1.90;;;24.40;57.00;;;;;;4944418;28;20475;-84
2023/08/09 16:11:27;;;;;;;2.07;1.87;;;24.40;57.00;;;;;;4940769;28;20484;-86
2023/08/09 16:14:26;;;;;;;2.80;1.73;;;25.00;57.70;;;;;;4941823;28;20929;-85
2023/08/09 16:17:10;;;;;;;2.23;1.77;;;24.60;57.00;;;;;;4963370;28;20608;-86
2023/08/09 16:20:01;;;;;;;2.77;2.10;;;25.10;57.00;;;;;;4955607;28;20545;-84
2023/08/09 16:22:48;;;;;;;4.70;3.40;;;24.60;54.70;;;;;;4952694;28;20450;-85
2023/08/09 16:25:36;;;;;;;;;;;;;;;;;;;;;
2023/08/09 16:28:10;;;;;;;2.20;2.10;;;25.20;56.90;;;;;;4955340;28;20717;-86
2023/08/09 16:31:11;;;;;;;2.50;1.87;;;24.90;56.40;;;;;;4941870;28;20496;-86
2023/08/09 16:34:10;;;;;;;2.70;2.17;;;24.90;56.60;;;;;;4938283;28;20469;-84
2023/08/09 16:41:03;;;;;;;1.87;1.77;;;24.50;55.00;;;;;;4955004;28;20451;-85
2023/08/09 16:47:27;;;;;;;2.20;2.00;;;24.50;56.10;;;;;;5010796;23;20512;-84